Stations météo

réclame
Mon MeteoGroup
Coventry/Coundon, Grande-Bretagne (99070): Température de l'air & dewpoint: 30.06.2020 12:00:00 - 06.07.2020 12:00:00 (BST)Coventry/Coundon, Grande-Bretagne (99070): Température de l'air -20cm & Température de l'air -100cm: 30.06.2020 12:00:00 - 06.07.2020 12:00:00 (BST)Coventry/Coundon, Grande-Bretagne (99070): Vitesse du vent & gusts: 30.06.2020 12:00:00 - 06.07.2020 12:00:00 (BST)Coventry/Coundon, Grande-Bretagne (99070): Direction du vent: 30.06.2020 12:00:00 - 06.07.2020 12:00:00 (BST)Coventry/Coundon, Grande-Bretagne (99070): Ensoleillement: 30.06.2020 12:00:00 - 06.07.2020 12:00:00 (BST)Coventry/Coundon, Grande-Bretagne (99070): Quantités de précipitations: 30.06.2020 12:00:00 - 06.07.2020 12:00:00 (BST)
Date & Time tt [°C] td [°C] tt -20cm [°C] tt -100cm [°C] ff [km/h] ff [knt] fx [km/h] fx [knt] dd sd [min] rr [mm]
06.07.2020 12:00:00 15,6 9,4 - - 15 8 - - WNW 0 -
06.07.2020 11:00:00 14,5 7,9 - - 15 8 - - WNW 6 0,0
06.07.2020 10:00:00 14,6 7,6 16,7 15,4 16 9 - - W 18 0,0
06.07.2020 09:00:00 13,7 7,2 - - 15 8 - - WNW 24 0,0
06.07.2020 08:00:00 13,4 7,4 - - 16 9 - - W 54 0,0
06.07.2020 07:00:00 12,2 8,0 - - 13 7 - - W 54 0,0
06.07.2020 06:00:00 10,7 7,7 - - 11 6 - - W 0 0,0
06.07.2020 05:00:00 10,9 8,0 - - 13 7 - - W 0 0,0
06.07.2020 04:00:00 11,3 8,2 - - 13 7 - - W 0 0,0
06.07.2020 03:00:00 11,9 8,2 - - 16 9 - - W 0 0,0
06.07.2020 02:00:00 12,5 7,9 - - 16 9 - - WSW 0 0,0
06.07.2020 01:00:00 13,0 7,9 - - 16 9 - - W - 0,0
06.07.2020 00:00:00 12,7 7,9 - - 16 9 - - W 0 0,0
05.07.2020 23:00:00 14,0 6,9 - - 22 12 - - WSW 0 0,0
05.07.2020 22:00:00 14,8 6,1 - - 21 11 - - W 0 0,0
05.07.2020 21:00:00 15,5 5,6 - - 22 12 48 26 WSW 6 0,0
05.07.2020 20:00:00 16,0 5,3 - - 22 12 50 27 W 6 0,0
05.07.2020 19:00:00 16,5 7,4 - - 18 10 - - WSW 0 0,0
05.07.2020 18:00:00 16,9 6,6 - - 26 14 48 26 WSW 6 0,0
05.07.2020 17:00:00 17,8 6,8 - - 21 11 46 25 W 12 0,0
05.07.2020 16:00:00 17,4 6,5 - - 24 13 46 25 WSW 24 0,0
05.07.2020 15:00:00 18,0 6,3 - - 24 13 48 26 WSW 42 0,0
05.07.2020 14:00:00 17,4 6,0 - - 18 10 - - W 12 0,0
05.07.2020 13:00:00 17,1 6,4 - - 21 11 48 26 W 24 0,0
05.07.2020 12:00:00 16,9 5,9 - - 21 11 - - W 42 0,0
05.07.2020 11:00:00 16,7 7,1 - - 18 10 - - W 30 0,0
05.07.2020 10:00:00 16,0 7,3 16,9 15,4 18 10 48 26 W 42 0,0
05.07.2020 09:00:00 16,9 8,7 - - 24 13 50 27 W 54 0,0
05.07.2020 08:00:00 16,6 10,0 - - 24 13 48 26 W 54 0,0
05.07.2020 07:00:00 16,4 11,8 - - 21 11 - - WSW 36 0,0
05.07.2020 06:00:00 16,3 12,1 - - 22 12 - - WSW 0 0,0
05.07.2020 05:00:00 16,8 13,8 - - 16 9 - - WSW 0 0,0
05.07.2020 04:00:00 16,6 14,3 - - 16 9 - - SW 0 0,0
05.07.2020 03:00:00 16,2 14,6 - - 18 10 48 26 SW 0 0,2
05.07.2020 02:00:00 16,0 14,7 - - 22 12 48 26 SW 0 0,0
05.07.2020 01:00:00 16,0 13,9 - - 15 8 48 26 SW - 0,0
05.07.2020 00:00:00 16,0 13,5 - - 24 13 - - SW 0 0,0
04.07.2020 23:00:00 16,7 13,7 - - 21 11 - - SW 0 0,0
04.07.2020 22:00:00 17,1 14,0 - - 16 9 - - SSW 0 0,0
04.07.2020 21:00:00 17,8 14,3 - - 16 9 - - SW 0 0,0
04.07.2020 20:00:00 18,6 14,5 - - 13 7 - - SW 0 0,0
04.07.2020 19:00:00 18,9 14,6 - - 15 8 - - WSW 0 0,0
04.07.2020 18:00:00 19,0 14,6 - - 15 8 - - SW 0 0,0
04.07.2020 17:00:00 19,5 14,9 - - 15 8 - - SW 0 0,0
04.07.2020 16:00:00 18,2 14,7 - - 15 8 - - SW 0 0,0
04.07.2020 15:00:00 18,4 14,5 - - 13 7 - - SW 0 0,0
04.07.2020 14:00:00 18,9 14,5 - - 15 8 - - SSW 0 0,0
04.07.2020 13:00:00 18,6 14,7 - - 13 7 - - SW 0 0,0
04.07.2020 12:00:00 18,3 14,7 - - 13 7 - - SW 0 0,0
04.07.2020 11:00:00 17,5 14,4 - - 11 6 - - SW 0 0,0
04.07.2020 10:00:00 17,0 14,6 16,7 15,5 15 8 - - SW 0 0,0
04.07.2020 09:00:00 17,1 14,4 - - 13 7 - - SW 0 0,0
04.07.2020 08:00:00 16,4 14,6 - - 11 6 - - SW 0 0,0
04.07.2020 07:00:00 16,1 14,4 - - 15 8 - - SW 0 0,0
04.07.2020 06:00:00 15,9 14,4 - - 15 8 - - SW 0 0,0
04.07.2020 05:00:00 15,8 14,3 - - 18 10 - - SSW 0 0,0
04.07.2020 04:00:00 15,8 14,0 - - 16 9 - - SSW 0 0,0
04.07.2020 03:00:00 15,7 13,8 - - 16 9 - - SSW 0 0,0
04.07.2020 02:00:00 15,4 13,6 - - 16 9 - - SSW 0 0,0
04.07.2020 01:00:00 15,2 13,4 - - 16 9 48 26 SSW - 0,0
04.07.2020 00:00:00 15,0 13,1 - - 18 10 - - SSW 0 0,0
03.07.2020 23:00:00 14,9 13,0 - - 18 10 - - SSW 0 0,0
03.07.2020 22:00:00 14,7 12,8 - - 16 9 - - SSW 0 0,0
03.07.2020 21:00:00 14,5 12,7 - - 16 9 - - SSW 0 0,0
03.07.2020 20:00:00 14,7 12,7 - - 16 9 - - SSW 0 0,0
03.07.2020 19:00:00 15,0 12,8 - - 21 11 - - SW 0 0,0
03.07.2020 18:00:00 15,1 13,1 - - 16 9 - - SSW 0 0,2
03.07.2020 17:00:00 15,3 12,2 - - 15 8 - - SW 0 0,2
03.07.2020 16:00:00 15,8 11,4 - - 21 11 - - SW 0 0,0
03.07.2020 15:00:00 16,0 11,5 - - 16 9 48 26 SSW 0 0,0
03.07.2020 14:00:00 15,3 12,4 - - 16 9 - - SW 0 0,2
03.07.2020 13:00:00 15,7 11,2 - - 16 9 - - SW 0 0,0
03.07.2020 12:00:00 17,0 11,2 - - 16 9 - - SW 6 0,0
03.07.2020 11:00:00 16,1 10,9 - - 18 10 - - SW 0 0,0
03.07.2020 10:00:00 13,8 11,5 17,0 15,5 11 6 - - SSW 0 0,0
03.07.2020 09:00:00 12,8 10,8 - - 13 7 - - SW 0 0,6
03.07.2020 08:00:00 13,6 11,2 - - 13 7 - - SW 6 0,0
03.07.2020 07:00:00 12,1 10,2 - - 8 4 - - SW 6 0,0
03.07.2020 06:00:00 11,3 9,7 - - 9 5 - - SSW 0 0,0
03.07.2020 05:00:00 11,4 9,7 - - 9 5 - - SSW 0 0,0
03.07.2020 04:00:00 11,0 8,9 - - 8 4 - - WSW 0 0,0
03.07.2020 03:00:00 11,0 8,6 - - 5 3 - - W 0 0,0
03.07.2020 02:00:00 11,1 8,6 - - 5 3 - - WSW 0 0,0
03.07.2020 01:00:00 11,7 8,8 - - 5 3 - - W - 0,0
03.07.2020 00:00:00 12,2 9,2 - - 5 3 - - W 0 0,0
02.07.2020 23:00:00 13,2 10,2 - - 8 4 - - W 0 0,0
02.07.2020 22:00:00 14,3 12,1 - - 4 2 - - W 0 0,0
02.07.2020 21:00:00 15,9 13,4 - - 5 3 - - WNW 6 0,0
02.07.2020 20:00:00 16,5 13,6 - - 4 2 - - WNW 24 0,0
02.07.2020 19:00:00 15,5 13,5 - - 8 4 - - NW 0 1,0
02.07.2020 18:00:00 17,2 13,5 - - 8 4 - - N 0 0,0
02.07.2020 17:00:00 16,4 13,9 - - 5 3 - - NNW 0 1,2
02.07.2020 16:00:00 17,6 12,7 - - 9 5 - - N 30 0,0
02.07.2020 15:00:00 18,0 14,6 - - 13 7 - - N 24 0,2
02.07.2020 14:00:00 16,5 13,8 - - 9 5 - - N 6 1,0
02.07.2020 13:00:00 19,2 11,9 - - 8 4 - - NW 18 0,0
02.07.2020 12:00:00 17,5 12,3 - - 5 3 - - W 12 0,0
02.07.2020 11:00:00 16,6 13,0 - - 9 5 - - W 6 0,0
02.07.2020 10:00:00 14,7 12,1 17,0 15,5 11 6 - - WSW 12 0,0
02.07.2020 09:00:00 13,6 12,7 - - 8 4 - - WSW 0 0,0
02.07.2020 08:00:00 12,5 11,7 - - 5 3 - - WSW 6 0,6
02.07.2020 07:00:00 13,1 11,2 - - 9 5 - - WSW 24 0,0
02.07.2020 06:00:00 11,1 10,3 - - 4 2 - - SW 0 0,0
02.07.2020 05:00:00 10,8 9,8 - - 4 2 - - SSW 0 0,0
02.07.2020 04:00:00 11,4 9,7 - - 5 3 - - WSW 0 0,0
02.07.2020 03:00:00 11,8 9,9 - - 5 3 - - WSW 0 0,0
02.07.2020 02:00:00 12,4 10,3 - - 8 4 - - WSW 0 0,0
02.07.2020 01:00:00 13,2 11,3 - - 5 3 - - W - 0,0
02.07.2020 00:00:00 13,5 12,0 - - 5 3 - - SW 0 0,0
01.07.2020 23:00:00 13,6 12,0 - - 5 3 - - W 0 0,0
01.07.2020 22:00:00 14,6 12,2 - - 8 4 - - W 0 0,0
01.07.2020 21:00:00 15,9 14,7 - - 8 4 - - W 0 0,0
01.07.2020 20:00:00 15,7 14,7 - - 2 1 - - NW 0 3,4
01.07.2020 19:00:00 16,6 13,9 - - 5 3 - - W 6 2,2
01.07.2020 18:00:00 17,6 14,4 - - 8 4 - - W 0 0,6
01.07.2020 17:00:00 19,2 12,6 - - 15 8 - - WSW 18 0,0
01.07.2020 16:00:00 17,2 14,4 - - 9 5 - - WSW 0 0,2
01.07.2020 15:00:00 17,7 13,4 - - 8 4 - - WSW 0 0,0
01.07.2020 14:00:00 16,7 12,0 - - 9 5 - - NW 0 0,0
01.07.2020 13:00:00 18,7 12,0 - - 11 6 - - WSW 0 0,0
01.07.2020 12:00:00 18,0 13,2 - - 9 5 - - W 6 0,0
01.07.2020 11:00:00 16,8 12,2 - - 11 6 - - WSW 0 0,0
01.07.2020 10:00:00 15,4 13,4 17,0 15,5 9 5 - - WSW 0 0,4
01.07.2020 09:00:00 14,6 13,2 - - 5 3 - - SW 0 0,0
01.07.2020 08:00:00 14,2 12,5 - - 8 4 - - WSW 0 0,0
01.07.2020 07:00:00 14,1 11,6 - - 9 5 - - SW 0 0,0
01.07.2020 06:00:00 13,7 11,8 - - 9 5 - - SW 0 0,0
01.07.2020 05:00:00 13,9 11,7 - - 8 4 - - SW 0 0,0
01.07.2020 04:00:00 14,1 11,7 - - 8 4 - - SW 0 0,0
01.07.2020 03:00:00 14,4 12,3 - - 9 5 - - SW 0 0,0
01.07.2020 02:00:00 14,2 12,1 - - 9 5 - - SW 0 0,0
01.07.2020 01:00:00 14,7 12,1 - - 8 4 - - SW - 0,0
01.07.2020 00:00:00 15,1 12,2 - - 9 5 - - SW 0 0,0
30.06.2020 23:00:00 15,4 12,4 - - 5 3 - - SSW 0 0,0
30.06.2020 22:00:00 17,1 13,2 - - 11 6 - - SW 0 0,0
30.06.2020 21:00:00 17,5 13,6 - - 11 6 - - SSW 6 0,0
30.06.2020 20:00:00 17,9 13,5 - - 9 5 - - SSW 0 0,0
30.06.2020 19:00:00 17,3 13,2 - - 9 5 - - S 0 0,0
30.06.2020 18:00:00 17,2 12,3 - - 11 6 - - SSW 0 0,0
30.06.2020 17:00:00 17,8 11,5 - - 11 6 - - SSW 6 0,0
30.06.2020 16:00:00 18,1 11,5 - - 11 6 - - WSW 0 0,0
30.06.2020 15:00:00 18,2 10,7 - - 11 6 - - SW 18 0,0
30.06.2020 14:00:00 18,1 9,6 - - 13 7 - - SW 42 0,0
30.06.2020 13:00:00 18,2 9,4 - - 9 5 - - SW 6 0,0
30.06.2020 12:00:00 16,6 9,0 - - 15 8 - - SW 6 0,0

tt = Température de l'air
td = dewpoint
tt -20cm = Température de l'air -20cm
tt -100cm = Température de l'air -100cm
ff = Vitesse du vent
fx = gusts
dd = Direction du vent
sd = Ensoleillement
rr = Quantités de précipitations

stations d'obs. à proximité